Time;durP1;ratioP1;P1;durP2;ratioP2;P2;SDS_P1;SDS_P2;PMS_P1;PMS_P2;Temp;Humidity;BMP_temperature;BMP_pressure;BME280_temperature;BME280_humidity;BME280_pressure;Samples;Min_cycle;Max_cycle;Signal;HPM_P1;HPM_P2
2024/01/13 00:01:50;;;;;;;103.22;45.25;;;;;;;3.45;100.00;102838.25;5094127;27;20045;-73
2024/01/13 00:04:15;;;;;;;90.95;43.85;;;;;;;3.50;100.00;102833.84;5094951;27;20079;-74
2024/01/13 00:06:41;;;;;;;77.47;39.00;;;;;;;3.46;100.00;102826.81;5099195;27;20043;-73
2024/01/13 00:09:07;;;;;;;76.35;37.08;;;;;;;3.55;100.00;102829.44;5097517;27;20043;-74
2024/01/13 00:11:32;;;;;;;74.05;37.40;;;;;;;3.55;100.00;102825.03;5076848;27;20040;-73
2024/01/13 00:13:58;;;;;;;71.32;35.17;;;;;;;3.54;100.00;102819.75;5101701;27;20035;-73
2024/01/13 00:16:24;;;;;;;66.50;34.63;;;;;;;3.53;100.00;102810.97;5094596;27;20038;-73
2024/01/13 00:18:49;;;;;;;62.22;31.27;;;;;;;3.50;100.00;102812.72;5078415;27;20444;-73
2024/01/13 00:21:15;;;;;;;74.68;35.70;;;;;;;3.57;100.00;102803.94;5098609;27;20027;-73
2024/01/13 00:23:40;;;;;;;59.58;31.25;;;;;;;3.52;100.00;102801.31;5097853;27;20580;-73
2024/01/13 00:26:06;;;;;;;66.53;34.53;;;;;;;3.59;100.00;102796.88;5078376;27;20168;-74
2024/01/13 00:28:32;;;;;;;71.25;34.35;;;;;;;3.59;100.00;102800.41;5088492;27;20559;-72
2024/01/13 00:30:58;;;;;;;79.47;39.42;;;;;;;3.58;100.00;102793.38;5093680;27;20031;-74
2024/01/13 00:33:23;;;;;;;86.28;42.83;;;;;;;3.56;100.00;102803.03;5069421;27;20126;-73
2024/01/13 00:35:49;;;;;;;91.47;46.08;;;;;;;3.50;100.00;102804.81;5082911;27;20040;-73
2024/01/13 00:38:15;;;;;;;110.28;51.22;;;;;;;3.44;100.00;102808.34;5077440;27;20024;-74
2024/01/13 00:40:41;;;;;;;123.97;55.75;;;;;;;3.46;100.00;102797.78;5066787;27;20596;-73
2024/01/13 00:43:06;;;;;;;133.80;57.83;;;;;;;3.48;100.00;102798.69;5089872;27;20032;-73
2024/01/13 00:45:32;;;;;;;103.78;50.75;;;;;;;3.47;100.00;102789.91;5088737;27;20082;-74
2024/01/13 00:47:57;;;;;;;116.75;56.42;;;;;;;3.53;100.00;102781.97;5093553;27;20048;-75
2024/01/13 00:50:23;;;;;;;108.28;54.10;;;;;;;3.53;100.00;102781.97;5087532;27;20829;-75
2024/01/13 00:52:48;;;;;;;118.75;53.47;;;;;;;3.56;100.00;102781.06;5076817;27;20067;-72
2024/01/13 00:55:14;;;;;;;98.40;48.95;;;;;;;3.64;100.00;102776.66;5066917;28;20032;-76
2024/01/13 00:57:40;;;;;;;85.05;45.40;;;;;;;3.50;100.00;102774.03;5086734;27;20032;-74
2024/01/13 01:00:06;;;;;;;94.72;48.58;;;;;;;3.58;100.00;102782.81;5073387;27;20039;-74
2024/01/13 01:02:32;;;;;;;88.47;45.00;;;;;;;3.57;100.00;102773.16;5073777;27;20597;-75
2024/01/13 01:04:57;;;;;;;93.50;46.03;;;;;;;3.63;100.00;102770.50;5095387;27;20169;-74
2024/01/13 01:07:23;;;;;;;92.43;48.25;;;;;;;3.64;100.00;102760.81;5099564;27;20787;-73
2024/01/13 01:09:48;;;;;;;96.25;48.20;;;;;;;3.69;100.00;102759.03;5071787;28;20830;-73
2024/01/13 01:12:14;;;;;;;104.80;51.70;;;;;;;3.62;100.00;102757.31;5096624;27;20063;-73
2024/01/13 01:14:39;;;;;;;114.30;54.08;;;;;;;3.66;100.00;102756.41;5086550;27;20040;-73
2024/01/13 01:17:05;;;;;;;101.63;50.10;;;;;;;3.60;100.00;102751.16;5082125;27;20987;-72
2024/01/13 01:19:31;;;;;;;96.95;49.95;;;;;;;3.60;100.00;102753.78;5090172;27;20648;-72
2024/01/13 01:21:56;;;;;;;106.47;50.47;;;;;;;3.62;100.00;102744.13;5092789;27;20774;-72
2024/01/13 01:24:22;;;;;;;102.22;50.38;;;;;;;3.44;100.00;102741.56;5088784;27;20036;-72
2024/01/13 01:26:47;;;;;;;95.93;49.15;;;;;;;3.46;100.00;102743.28;5099208;27;20035;-73
2024/01/13 01:29:13;;;;;;;103.65;50.20;;;;;;;3.39;100.00;102746.84;5096354;27;20040;-73
2024/01/13 01:31:38;;;;;;;96.18;50.22;;;;;;;3.45;100.00;102748.56;5096501;27;20036;-73
2024/01/13 01:34:04;;;;;;;105.95;51.42;;;;;;;3.40;100.00;102753.84;5072810;28;20180;-73
2024/01/13 01:36:29;;;;;;;116.32;56.15;;;;;;;3.43;100.00;102745.94;5087807;27;21025;-74
2024/01/13 01:38:55;;;;;;;115.65;55.22;;;;;;;3.41;100.00;102736.28;5090248;27;20040;-73
2024/01/13 01:41:22;;;;;;;131.05;60.55;;;;;;;3.43;100.00;102743.31;5097943;27;20050;-72
2024/01/13 01:43:48;;;;;;;147.70;63.20;;;;;;;3.34;100.00;102746.84;5067969;27;20044;-74
2024/01/13 01:46:14;;;;;;;136.38;60.67;;;;;;;3.31;100.00;102745.97;5090129;27;20039;-74
2024/01/13 01:48:41;;;;;;;136.73;60.45;;;;;;;3.38;100.00;102748.59;5082039;27;20565;-73
2024/01/13 01:51:09;;;;;;;141.80;62.30;;;;;;;3.43;100.00;102740.69;5090432;27;20933;-74
2024/01/13 01:53:36;;;;;;;139.32;60.42;;;;;;;3.27;100.00;102731.06;5053591;27;20047;-74
2024/01/13 01:56:06;;;;;;;152.75;62.05;;;;;;;3.33;100.00;102728.41;5099064;27;20124;-75
2024/01/13 01:58:32;;;;;;;164.60;65.20;;;;;;;3.31;100.00;102738.97;5090260;27;20043;-75
2024/01/13 02:01:00;;;;;;;144.65;63.05;;;;;;;3.35;100.00;102737.19;5098650;27;20106;-74
2024/01/13 02:03:25;;;;;;;155.90;65.47;;;;;;;3.40;100.00;102739.81;5098232;27;20078;-74
2024/01/13 02:05:51;;;;;;;155.20;63.92;;;;;;;3.37;100.00;102738.94;5068015;27;20560;-72
2024/01/13 02:08:17;;;;;;;145.70;61.72;;;;;;;3.44;100.00;102731.88;5074292;27;20795;-74
2024/01/13 02:10:43;;;;;;;157.52;63.13;;;;;;;3.45;100.00;102730.13;5097677;27;20139;-74
2024/01/13 02:13:08;;;;;;;149.98;61.72;;;;;;;3.31;100.00;102723.16;5085339;27;20409;-74
2024/01/13 02:15:34;;;;;;;163.65;63.47;;;;;;;3.29;100.00;102716.97;5077133;27;20425;-73
2024/01/13 02:18:00;;;;;;;145.70;60.38;;;;;;;3.29;100.00;102713.47;5092884;27;20126;-74
2024/01/13 02:20:25;;;;;;;152.82;59.90;;;;;;;3.34;100.00;102709.94;5091480;27;20030;-75
2024/01/13 02:22:51;;;;;;;158.20;61.40;;;;;;;3.21;100.00;102712.59;5090980;27;20040;-73
2024/01/13 02:25:16;;;;;;;137.95;58.20;;;;;;;3.28;100.00;102714.38;5083032;27;20389;-74
2024/01/13 02:27:42;;;;;;;131.60;55.92;;;;;;;3.29;100.00;102710.84;5094571;27;20030;-74
2024/01/13 02:30:08;;;;;;;140.55;58.40;;;;;;;3.31;100.00;102704.69;5091011;27;20028;-72
2024/01/13 02:32:34;;;;;;;140.57;59.30;;;;;;;3.26;100.00;102706.47;5079596;27;20272;-71
2024/01/13 02:34:59;;;;;;;145.80;60.38;;;;;;;3.26;100.00;102695.91;5069382;28;20713;-75
2024/01/13 02:37:25;;;;;;;142.70;60.15;;;;;;;3.24;100.00;102700.31;5081812;27;20036;-72
2024/01/13 02:39:50;;;;;;;130.07;55.28;;;;;;;3.23;100.00;102687.13;5076187;27;20162;-74
2024/01/13 02:42:16;;;;;;;122.60;54.20;;;;;;;3.22;100.00;102686.25;5093256;27;20039;-74
2024/01/13 02:44:41;;;;;;;114.03;52.05;;;;;;;3.27;100.00;102686.25;5077611;27;20032;-74
2024/01/13 02:47:07;;;;;;;137.15;54.22;;;;;;;3.28;100.00;102685.38;5089971;27;20126;-73
2024/01/13 02:49:32;;;;;;;120.22;51.15;;;;;;;3.29;100.00;102674.81;5091229;27;20032;-74
2024/01/13 02:51:58;;;;;;;129.43;52.45;;;;;;;3.25;100.00;102667.78;5085854;27;25752;-74
2024/01/13 02:54:23;;;;;;;116.40;50.05;;;;;;;3.27;100.00;102671.31;5094385;27;20284;-74
2024/01/13 02:56:49;;;;;;;121.03;49.10;;;;;;;3.28;100.00;102659.00;5075290;27;20794;-74
2024/01/13 02:59:14;;;;;;;121.93;47.00;;;;;;;3.20;100.00;102652.88;5097038;27;20040;-74
2024/01/13 03:01:40;;;;;;;111.93;45.53;;;;;;;3.23;100.00;102639.69;5099266;27;20196;-74
2024/01/13 03:04:06;;;;;;;101.50;40.78;;;;;;;3.14;100.00;102629.16;5077252;27;20032;-74
2024/01/13 03:06:32;;;;;;;98.90;40.25;;;;;;;3.12;100.00;102631.81;5094393;27;20031;-74
2024/01/13 03:08:57;;;;;;;103.95;37.67;;;;;;;3.08;100.00;102624.81;5092170;27;20036;-74
2024/01/13 03:11:24;;;;;;;94.65;35.47;;;;;;;3.15;100.00;102629.16;5092500;27;20044;-74
2024/01/13 03:13:49;;;;;;;101.00;37.42;;;;;;;3.19;100.00;102615.09;5094618;27;20028;-73
2024/01/13 03:16:15;;;;;;;97.53;35.30;;;;;;;3.18;100.00;102623.88;5099376;27;20032;-73
2024/01/13 03:18:41;;;;;;;95.25;34.40;;;;;;;3.22;100.00;102623.00;5093838;27;20181;-73
2024/01/13 03:21:07;;;;;;;90.85;33.38;;;;;;;3.14;100.00;102619.50;5094647;27;20046;-73
2024/01/13 03:23:32;;;;;;;89.32;31.83;;;;;;;3.26;100.00;102626.47;5099960;27;20043;-74
2024/01/13 03:25:58;;;;;;;86.95;34.28;;;;;;;3.23;100.00;102615.97;5100188;27;20035;-74
2024/01/13 03:28:24;;;;;;;101.38;33.60;;;;;;;3.25;100.00;102616.81;5086212;27;20040;-74
2024/01/13 03:30:50;;;;;;;84.15;29.83;;;;;;;3.21;100.00;102610.69;5086332;27;20044;-73
2024/01/13 03:33:15;;;;;;;71.25;27.00;;;;;;;3.19;100.00;102608.94;5077065;27;20036;-73
2024/01/13 03:35:41;;;;;;;69.07;27.60;;;;;;;3.15;100.00;102602.81;5081534;27;20054;-74
2024/01/13 03:38:06;;;;;;;69.95;27.80;;;;;;;3.16;100.00;102601.91;5073078;27;20033;-74
2024/01/13 03:40:32;;;;;;;77.00;29.50;;;;;;;3.14;100.00;102597.53;5097722;27;20053;-73
2024/01/13 03:42:58;;;;;;;84.00;29.50;;;;;;;3.16;100.00;102608.94;5076357;27;20039;-74
2024/01/13 03:45:23;;;;;;;76.03;28.98;;;;;;;3.13;100.00;102603.72;5097406;27;20043;-74
2024/01/13 03:47:49;;;;;;;79.95;27.52;;;;;;;3.13;100.00;102598.44;5066861;28;20040;-74
2024/01/13 03:50:14;;;;;;;79.55;28.83;;;;;;;3.22;100.00;102575.56;5096972;27;20032;-74
2024/01/13 03:52:40;;;;;;;77.15;29.23;;;;;;;3.16;100.00;102580.81;5083266;27;20853;-74
2024/01/13 03:55:06;;;;;;;87.28;28.77;;;;;;;3.21;100.00;102580.81;5096156;27;20024;-73
2024/01/13 03:57:32;;;;;;;87.05;29.20;;;;;;;3.19;100.00;102582.59;5098762;27;20591;-74
2024/01/13 03:59:57;;;;;;;91.82;31.15;;;;;;;3.26;100.00;102574.66;5093822;27;20035;-73
2024/01/13 04:02:24;;;;;;;83.10;29.38;;;;;;;3.26;100.00;102576.38;5098755;27;20031;-74
2024/01/13 04:04:50;;;;;;;79.57;29.45;;;;;;;3.28;100.00;102578.16;5079327;27;20917;-73
2024/01/13 04:07:15;;;;;;;80.05;29.55;;;;;;;3.35;100.00;102576.34;5071553;27;20037;-74
2024/01/13 04:09:41;;;;;;;93.80;32.10;;;;;;;3.31;100.00;102569.34;5073589;27;20259;-73
2024/01/13 04:12:07;;;;;;;97.10;32.42;;;;;;;3.37;100.00;102564.06;5072988;27;20999;-74
2024/01/13 04:14:32;;;;;;;91.45;32.30;;;;;;;3.33;100.00;102560.53;5100857;27;20040;-74
2024/01/13 04:16:58;;;;;;;90.93;31.98;;;;;;;3.27;100.00;102565.84;5099809;27;20043;-74
2024/01/13 04:19:24;;;;;;;82.82;29.45;;;;;;;3.26;100.00;102563.22;5095559;27;20168;-74
2024/01/13 04:21:49;;;;;;;85.45;31.63;;;;;;;3.36;100.00;102568.44;5080436;27;20028;-74
2024/01/13 04:24:15;;;;;;;84.93;31.42;;;;;;;3.35;100.00;102564.03;5092057;27;20032;-73
2024/01/13 04:26:40;;;;;;;91.05;34.90;;;;;;;3.44;100.00;102564.88;5088219;27;20508;-74
2024/01/13 04:29:06;;;;;;;110.65;40.63;;;;;;;3.38;100.00;102558.75;5097227;27;20127;-74
2024/01/13 04:31:31;;;;;;;113.15;42.10;;;;;;;3.42;100.00;102558.75;5096920;27;20853;-74
2024/01/13 04:33:57;;;;;;;115.50;43.10;;;;;;;3.35;100.00;102553.50;5095653;27;20086;-74
2024/01/13 04:36:23;;;;;;;126.35;48.05;;;;;;;3.40;100.00;102555.22;5078829;27;20062;-74
2024/01/13 04:38:49;;;;;;;124.15;49.88;;;;;;;3.35;100.00;102557.88;5069472;27;20048;-74
2024/01/13 04:41:15;;;;;;;143.73;52.28;;;;;;;3.41;100.00;102555.22;5100096;27;20138;-73
2024/01/13 04:43:42;;;;;;;144.55;53.63;;;;;;;3.42;100.00;102553.47;5097228;27;20039;-74
2024/01/13 04:46:10;;;;;;;144.55;55.13;;;;;;;3.50;100.00;102552.53;5094637;27;20122;-74
2024/01/13 04:48:36;;;;;;;142.63;52.05;;;;;;;3.42;100.00;102551.72;5094144;27;20050;-74
2024/01/13 04:51:01;;;;;;;132.25;52.67;;;;;;;3.47;100.00;102549.06;5100200;27;20059;-73
2024/01/13 04:53:27;;;;;;;149.65;52.83;;;;;;;3.45;100.00;102541.13;5094042;27;20782;-74
2024/01/13 04:55:52;;;;;;;138.95;52.97;;;;;;;3.43;100.00;102539.41;5076295;27;20062;-74
2024/01/13 04:58:18;;;;;;;131.32;51.08;;;;;;;3.42;100.00;102543.81;5096599;27;20042;-74
2024/01/13 05:00:43;;;;;;;130.25;51.97;;;;;;;3.43;100.00;102544.69;5085762;27;20064;-73
2024/01/13 05:03:09;;;;;;;137.20;52.17;;;;;;;3.45;100.00;102542.88;5094205;27;20024;-74
2024/01/13 05:05:35;;;;;;;154.27;55.92;;;;;;;3.49;100.00;102552.53;5084328;27;20037;-74
2024/01/13 05:08:00;;;;;;;143.45;56.08;;;;;;;3.50;100.00;102547.25;5095835;27;20968;-73
2024/01/13 05:10:26;;;;;;;145.45;54.70;;;;;;;3.47;100.00;102547.28;5093691;27;20036;-73
2024/01/13 05:12:51;;;;;;;146.35;58.13;;;;;;;3.49;100.00;102547.25;5094715;27;20044;-74
2024/01/13 05:15:17;;;;;;;161.95;60.60;;;;;;;3.41;100.00;102539.38;5094194;27;20057;-74
2024/01/13 05:17:42;;;;;;;152.32;57.33;;;;;;;3.41;100.00;102546.44;5096943;27;20043;-73
2024/01/13 05:20:09;;;;;;;150.02;57.85;;;;;;;3.42;100.00;102540.28;5097638;27;20040;-73
2024/01/13 05:22:34;;;;;;;164.40;61.17;;;;;;;3.46;100.00;102544.63;5081673;27;21126;-73
2024/01/13 05:25:00;;;;;;;149.65;56.17;;;;;;;3.49;100.00;102534.06;5083862;27;20083;-74
2024/01/13 05:27:26;;;;;;;164.75;56.00;;;;;;;3.44;100.00;102538.50;5076562;27;20959;-74
2024/01/13 05:29:52;;;;;;;149.98;53.65;;;;;;;3.37;100.00;102535.03;5090362;27;20105;-74
2024/01/13 05:32:18;;;;;;;142.02;53.85;;;;;;;3.38;100.00;102542.94;5074793;27;20053;-73
2024/01/13 05:34:43;;;;;;;140.80;53.38;;;;;;;3.43;100.00;102545.53;5066945;27;20663;-73
2024/01/13 05:37:09;;;;;;;138.88;53.38;;;;;;;3.40;100.00;102547.31;5094155;27;20036;-73
2024/01/13 05:39:34;;;;;;;143.55;55.28;;;;;;;3.33;100.00;102539.44;5077180;28;20214;-73
2024/01/13 05:42:00;;;;;;;120.78;50.80;;;;;;;3.43;100.00;102526.22;5080428;28;20036;-73
2024/01/13 05:44:26;;;;;;;129.85;51.35;;;;;;;3.40;100.00;102536.78;5090416;27;20023;-72
2024/01/13 05:46:51;;;;;;;145.32;53.67;;;;;;;3.31;100.00;102528.06;5077163;27;20801;-73
2024/01/13 05:49:17;;;;;;;132.48;53.90;;;;;;;3.32;100.00;102535.06;5087613;27;20048;-73
2024/01/13 05:51:43;;;;;;;132.15;52.83;;;;;;;3.33;100.00;102528.91;5093656;27;20035;-73
2024/01/13 05:54:09;;;;;;;146.95;56.17;;;;;;;3.41;100.00;102522.69;5086604;27;20025;-73
2024/01/13 05:56:35;;;;;;;159.77;60.45;;;;;;;3.35;100.00;102505.16;5096363;27;20043;-72
2024/01/13 05:59:01;;;;;;;155.45;57.45;;;;;;;3.35;100.00;102502.53;5078822;27;21033;-73
2024/01/13 06:01:26;;;;;;;164.30;59.70;;;;;;;3.38;100.00;102486.69;5085711;27;20515;-73
2024/01/13 06:03:52;;;;;;;173.88;63.15;;;;;;;3.37;100.00;102479.69;5078219;28;20047;-73
2024/01/13 06:06:18;;;;;;;183.63;65.78;;;;;;;3.35;100.00;102469.13;5090285;27;20048;-73
2024/01/13 06:08:44;;;;;;;162.77;63.38;;;;;;;3.33;100.00;102451.56;5099889;27;20044;-73
2024/01/13 06:11:09;;;;;;;182.15;65.65;;;;;;;3.29;100.00;102460.38;5099465;27;20091;-72
2024/01/13 06:13:35;;;;;;;181.70;65.53;;;;;;;3.34;100.00;102462.09;5077660;27;20048;-73
2024/01/13 06:16:01;;;;;;;166.27;62.40;;;;;;;3.37;100.00;102480.56;5095137;27;20031;-72
2024/01/13 06:18:26;;;;;;;152.48;60.28;;;;;;;3.40;100.00;102491.94;5097293;27;20024;-72
2024/01/13 06:20:52;;;;;;;161.73;61.03;;;;;;;3.39;100.00;102493.72;5090016;27;20109;-72
2024/01/13 06:23:17;;;;;;;150.82;59.72;;;;;;;3.38;100.00;102495.47;5079348;27;20036;-73
2024/01/13 06:25:43;;;;;;;146.88;56.97;;;;;;;3.37;100.00;102491.09;5075977;27;20912;-73
2024/01/13 06:28:08;;;;;;;144.82;58.58;;;;;;;3.46;100.00;102495.41;5096671;27;20032;-73
2024/01/13 06:30:34;;;;;;;145.27;57.92;;;;;;;3.45;100.00;102475.19;5101704;27;20040;-73
2024/01/13 06:32:59;;;;;;;149.15;56.70;;;;;;;3.49;100.00;102462.88;5091372;27;20028;-73
2024/01/13 06:35:25;;;;;;;120.15;51.60;;;;;;;3.43;100.00;102474.34;5091086;27;20769;-72
2024/01/13 06:37:51;;;;;;;147.45;57.97;;;;;;;3.51;100.00;102461.97;5067049;28;20047;-73
2024/01/13 06:40:16;;;;;;;143.68;57.13;;;;;;;3.55;100.00;102466.34;5093199;27;20132;-72
2024/01/13 06:42:42;;;;;;;133.55;53.72;;;;;;;3.45;100.00;102440.94;5076786;27;20028;-74
2024/01/13 06:45:08;;;;;;;147.48;55.65;;;;;;;3.41;100.00;102422.50;5098140;27;20092;-72
2024/01/13 06:47:33;;;;;;;124.72;52.55;;;;;;;3.44;100.00;102412.81;5087793;27;20111;-73
2024/01/13 06:49:59;;;;;;;130.38;52.10;;;;;;;3.46;100.00;102395.19;5088066;27;20724;-73
2024/01/13 06:52:25;;;;;;;135.48;53.13;;;;;;;3.42;100.00;102388.22;5098379;27;20046;-72
2024/01/13 06:54:51;;;;;;;125.47;49.50;;;;;;;3.42;100.00;102384.72;5088557;27;20029;-73
2024/01/13 06:57:16;;;;;;;131.10;48.95;;;;;;;3.51;100.00;102392.53;5063805;28;20101;-72
2024/01/13 06:59:45;;;;;;;113.97;45.70;;;;;;;3.40;100.00;102403.16;5067630;27;20036;-73
2024/01/13 07:02:11;;;;;;;128.65;46.25;;;;;;;3.41;100.00;102393.50;5074797;27;20021;-73
2024/01/13 07:04:38;;;;;;;120.65;47.38;;;;;;;3.46;100.00;102386.41;5075036;27;20059;-73
2024/01/13 07:07:04;;;;;;;126.50;47.38;;;;;;;3.55;100.00;102396.88;5092710;27;20071;-73
2024/01/13 07:09:30;;;;;;;134.48;52.47;;;;;;;3.53;100.00;102389.00;5094538;27;20047;-73
2024/01/13 07:11:55;;;;;;;137.25;51.58;;;;;;;3.56;100.00;102377.53;5087493;27;20040;-72
2024/01/13 07:14:21;;;;;;;134.68;51.88;;;;;;;3.54;100.00;102377.56;5084895;27;20029;-72
2024/01/13 07:16:46;;;;;;;142.63;53.15;;;;;;;3.54;100.00;102374.91;5088339;27;20970;-73
2024/01/13 07:19:12;;;;;;;138.52;52.75;;;;;;;3.55;100.00;102368.75;5094217;27;20036;-72
2024/01/13 07:21:37;;;;;;;146.63;52.63;;;;;;;3.49;100.00;102374.09;5070582;27;20052;-72
2024/01/13 07:24:04;;;;;;;127.28;47.30;;;;;;;3.44;100.00;102367.13;5093580;27;20907;-72
2024/01/13 07:26:29;;;;;;;134.07;50.58;;;;;;;3.51;100.00;102369.66;5092428;27;20122;-73
2024/01/13 07:28:55;;;;;;;139.13;49.25;;;;;;;3.45;100.00;102375.00;5097037;27;20036;-73
2024/01/13 07:31:21;;;;;;;127.28;48.08;;;;;;;3.52;100.00;102379.34;5097990;27;20164;-73
2024/01/13 07:33:47;;;;;;;143.02;50.72;;;;;;;3.53;100.00;102377.59;5092260;27;20980;-73
2024/01/13 07:36:12;;;;;;;131.32;46.90;;;;;;;3.48;100.00;102353.88;5080852;27;20059;-73
2024/01/13 07:38:38;;;;;;;135.00;47.38;;;;;;;3.46;100.00;102349.50;5094331;27;20070;-73
2024/01/13 07:41:03;;;;;;;137.95;48.05;;;;;;;3.52;100.00;102345.06;5081038;27;20036;-73
2024/01/13 07:43:29;;;;;;;143.10;50.97;;;;;;;3.37;100.00;102327.63;5064207;28;20040;-73
2024/01/13 07:45:54;;;;;;;126.15;45.97;;;;;;;3.50;100.00;102328.38;5084600;27;21259;-73
2024/01/13 07:48:20;;;;;;;136.70;47.45;;;;;;;3.56;100.00;102328.28;5087389;27;20036;-72
2024/01/13 07:50:45;;;;;;;140.88;47.50;;;;;;;3.56;100.00;102335.34;5090554;27;20024;-73
2024/01/13 07:53:12;;;;;;;149.80;50.05;;;;;;;3.50;100.00;102325.72;5092664;27;20048;-73
2024/01/13 07:55:37;;;;;;;125.18;42.08;;;;;;;3.43;100.00;102326.69;5083500;27;20104;-74
2024/01/13 07:58:03;;;;;;;131.48;45.55;;;;;;;3.49;100.00;102323.13;5089824;27;20032;-74
2024/01/13 08:00:28;;;;;;;121.85;39.65;;;;;;;3.41;100.00;102327.59;5094149;27;20105;-74
2024/01/13 08:02:54;;;;;;;119.18;39.90;;;;;;;3.49;100.00;102345.09;5094069;27;20035;-74
2024/01/13 08:05:19;;;;;;;106.35;38.10;;;;;;;3.49;100.00;102346.84;5088523;27;25015;-74
2024/01/13 08:07:45;;;;;;;116.95;38.50;;;;;;;3.54;100.00;102352.94;5094361;27;20033;-74
2024/01/13 08:10:11;;;;;;;100.18;33.20;;;;;;;3.55;100.00;102344.16;5073130;27;20214;-74
2024/01/13 08:12:36;;;;;;;109.65;35.85;;;;;;;3.63;100.00;102331.75;5086613;27;20048;-74
2024/01/13 08:15:03;;;;;;;98.88;33.72;;;;;;;3.62;100.00;102336.16;5085230;27;20128;-74
2024/01/13 08:17:29;;;;;;;92.35;32.90;;;;;;;3.58;100.00;102347.63;5094626;27;20545;-74
2024/01/13 08:19:55;;;;;;;98.10;33.53;;;;;;;3.55;100.00;102337.09;5072750;27;20139;-74
2024/01/13 08:22:21;;;;;;;96.32;34.45;;;;;;;3.64;100.00;102346.69;5090859;27;20101;-74
2024/01/13 08:24:46;;;;;;;96.03;34.90;;;;;;;3.55;100.00;102341.50;5086395;27;20043;-73
2024/01/13 08:27:12;;;;;;;106.00;36.45;;;;;;;3.62;100.00;102340.56;5072743;27;20098;-74
2024/01/13 08:29:37;;;;;;;101.43;36.80;;;;;;;3.59;100.00;102346.75;5097048;27;20138;-74
2024/01/13 08:32:03;;;;;;;108.97;37.25;;;;;;;3.63;100.00;102347.59;5073451;27;20040;-74
2024/01/13 08:34:28;;;;;;;113.07;37.78;;;;;;;3.72;100.00;102347.50;5075611;27;20036;-74
2024/01/13 08:36:54;;;;;;;104.25;36.92;;;;;;;3.74;100.00;102324.59;5080553;27;20024;-74
2024/01/13 08:39:20;;;;;;;108.13;36.33;;;;;;;3.68;100.00;102329.09;5064763;27;20044;-74
2024/01/13 08:41:45;;;;;;;109.47;38.08;;;;;;;3.73;100.00;102324.63;5088809;27;20032;-74
2024/01/13 08:44:11;;;;;;;120.95;40.38;;;;;;;3.71;100.00;102329.91;5091852;27;20031;-74
2024/01/13 08:46:36;;;;;;;103.90;36.10;;;;;;;3.65;100.00;102319.41;5083414;27;20048;-74
2024/01/13 08:49:02;;;;;;;119.40;39.50;;;;;;;3.70;100.00;102301.78;5091256;27;20048;-73
2024/01/13 08:51:27;;;;;;;101.18;38.97;;;;;;;3.68;100.00;102313.25;5085931;27;20091;-74
2024/01/13 08:53:53;;;;;;;115.57;39.58;;;;;;;3.75;100.00;102299.97;5086597;27;20035;-74
2024/01/13 08:56:18;;;;;;;104.03;37.17;;;;;;;3.67;100.00;102314.16;5096899;27;20028;-74
2024/01/13 08:58:44;;;;;;;112.88;40.47;;;;;;;3.81;100.00;102320.13;5094071;27;20027;-74
2024/01/13 09:01:09;;;;;;;101.35;39.10;;;;;;;3.79;100.00;102322.78;5087928;27;20799;-74
2024/01/13 09:03:35;;;;;;;117.68;41.47;;;;;;;3.75;100.00;102322.84;5065958;27;20045;-74
2024/01/13 09:06:00;;;;;;;109.53;40.33;;;;;;;3.78;100.00;102330.72;5077318;27;20047;-73
2024/01/13 09:08:26;;;;;;;107.03;39.83;;;;;;;3.82;100.00;102325.41;5080321;27;20043;-73
2024/01/13 09:10:51;;;;;;;101.78;40.60;;;;;;;3.70;100.00;102322.00;5067255;27;20129;-73
2024/01/13 09:13:17;;;;;;;117.97;43.17;;;;;;;3.80;100.00;102329.81;5070857;27;20075;-73
2024/01/13 09:15:43;;;;;;;106.68;40.90;;;;;;;3.81;100.00;102323.63;5085632;27;20031;-73
2024/01/13 09:18:08;;;;;;;122.57;43.13;;;;;;;3.74;100.00;102327.25;5088048;27;20020;-73
2024/01/13 09:20:34;;;;;;;108.78;41.58;;;;;;;3.80;100.00;102319.25;5088119;27;20050;-73
2024/01/13 09:23:00;;;;;;;116.72;43.65;;;;;;;3.83;100.00;102315.72;5092652;27;20032;-73
2024/01/13 09:25:25;;;;;;;119.53;42.72;;;;;;;3.82;100.00;102314.84;5077067;27;20028;-73
2024/01/13 09:27:54;;;;;;;134.85;44.00;;;;;;;3.79;100.00;102306.94;5083325;27;20146;-74
2024/01/13 09:30:21;;;;;;;123.78;46.28;;;;;;;3.86;100.00;102305.97;5083438;27;20036;-73
2024/01/13 09:32:47;;;;;;;115.68;44.50;;;;;;;3.89;100.00;102299.81;5087440;27;20039;-73
2024/01/13 09:35:13;;;;;;;120.97;45.45;;;;;;;3.86;100.00;102294.56;5094964;27;20038;-74
2024/01/13 09:37:38;;;;;;;128.18;45.83;;;;;;;3.83;100.00;102292.84;5077700;27;20847;-73
2024/01/13 09:40:05;;;;;;;121.55;45.85;;;;;;;3.85;100.00;102287.53;5068748;27;20926;-73
2024/01/13 09:42:36;;;;;;;106.53;44.45;;;;;;;3.83;100.00;102286.69;5093622;27;20212;-73
2024/01/13 09:45:01;;;;;;;104.13;43.50;;;;;;;3.96;100.00;102275.06;5092854;27;20046;-74
2024/01/13 09:47:27;;;;;;;98.13;40.72;;;;;;;3.89;100.00;102271.66;5095283;27;20464;-73
2024/01/13 09:49:53;;;;;;;102.13;41.47;;;;;;;4.00;100.00;102262.72;5090639;27;20483;-73
2024/01/13 09:52:20;;;;;;;83.03;37.75;;;;;;;3.87;100.00;102268.16;5091893;27;20037;-74
2024/01/13 09:54:49;;;;;;;89.75;38.15;;;;;;;3.97;100.00;102270.69;5085598;27;20070;-73
2024/01/13 09:57:15;;;;;;;101.47;40.40;;;;;;;3.93;100.00;102268.97;5063923;27;20033;-73
2024/01/13 09:59:41;;;;;;;84.43;38.20;;;;;;;3.95;100.00;102273.34;5092235;27;20036;-73
2024/01/13 10:02:13;;;;;;;94.38;41.65;;;;;;;3.94;100.00;102276.88;5094980;27;20036;-74
2024/01/13 10:04:40;;;;;;;90.57;37.53;;;;;;;3.83;100.00;102281.41;5098891;27;20032;-73
2024/01/13 10:07:08;;;;;;;88.57;39.00;;;;;;;3.88;100.00;102269.03;5090353;27;20020;-73
2024/01/13 10:09:33;;;;;;;90.20;38.45;;;;;;;3.93;100.00;102263.72;5087802;27;20048;-73
2024/01/13 10:11:59;;;;;;;86.70;39.50;;;;;;;4.02;100.00;102263.59;5085744;27;20132;-73
2024/01/13 10:14:25;;;;;;;75.45;36.38;;;;;;;4.04;100.00;102265.31;5089709;27;20032;-73
2024/01/13 10:16:50;;;;;;;83.47;37.13;;;;;;;4.20;100.00;102263.31;5101138;27;20135;-74
2024/01/13 10:19:16;;;;;;;77.43;35.55;;;;;;;4.15;100.00;102259.88;5092429;27;20762;-73
2024/01/13 10:21:42;;;;;;;73.47;34.35;;;;;;;4.24;100.00;102264.16;5096475;27;20038;-74
2024/01/13 10:24:07;;;;;;;70.90;32.53;;;;;;;4.12;100.00;102255.53;5072410;27;20448;-73
2024/01/13 10:26:33;;;;;;;61.80;30.23;;;;;;;4.18;100.00;102253.69;5087142;27;20075;-73
2024/01/13 10:28:59;;;;;;;66.15;31.30;;;;;;;4.24;100.00;102241.28;5099804;27;20055;-73
2024/01/13 10:31:25;;;;;;;69.75;29.80;;;;;;;4.25;100.00;102232.44;5099386;27;20031;-74
2024/01/13 10:33:52;;;;;;;51.22;26.58;;;;;;;4.15;100.00;102230.84;5092404;27;20023;-73
2024/01/13 10:36:22;;;;;;;53.90;25.98;;;;;;;4.09;100.00;102226.53;5090039;27;20028;-73
2024/01/13 10:38:49;;;;;;;55.72;25.63;;;;;;;4.04;100.00;102223.06;5091027;27;20032;-73
2024/01/13 10:41:15;;;;;;;48.90;24.10;;;;;;;4.12;100.00;102222.97;5093207;27;20040;-74
2024/01/13 10:43:42;;;;;;;48.25;23.70;;;;;;;4.15;100.00;102207.94;5090523;27;20031;-73
2024/01/13 10:46:12;;;;;;;47.63;23.92;;;;;;;4.03;100.00;102199.34;5086292;27;20036;-74
2024/01/13 10:48:47;;;;;;;51.60;25.63;;;;;;;4.12;100.00;102188.66;5092978;27;20211;-74
2024/01/13 10:51:32;;;;;;;50.08;24.75;;;;;;;4.14;100.00;102190.38;5084174;27;20032;-73
2024/01/13 10:54:02;;;;;;;55.03;25.05;;;;;;;4.06;100.00;102176.41;5101151;27;21071;-73
2024/01/13 10:56:31;;;;;;;56.78;27.50;;;;;;;4.16;100.00;102182.41;5095949;27;20039;-73
2024/01/13 10:58:58;;;;;;;64.13;29.40;;;;;;;4.12;100.00;102183.38;5091817;27;20139;-73